sensor_id;sensor_type;location;lat;lon;timestamp;pressure;altitude;pressure_sealevel;temperature;humidity
13124;BME280;6627;50.920;12.050;2023-11-21T00:00:36;98250.72;;;16.68;52.81
13124;BME280;6627;50.920;12.050;2023-11-21T00:03:03;98310.13;;;16.99;53.24
13124;BME280;6627;50.920;12.050;2023-11-21T00:05:31;98287.97;;;17.04;52.55
13124;BME280;6627;50.920;12.050;2023-11-21T00:07:58;98279.38;;;17.21;52.11
13124;BME280;6627;50.920;12.050;2023-11-21T00:10:25;98278.06;;;16.68;53.08
13124;BME280;6627;50.920;12.050;2023-11-21T00:12:54;98259.78;;;16.40;53.51
13124;BME280;6627;50.920;12.050;2023-11-21T00:15:23;98310.16;;;17.34;52.17
13124;BME280;6627;50.920;12.050;2023-11-21T00:17:51;98377.59;;;18.48;50.58
13124;BME280;6627;50.920;12.050;2023-11-21T00:20:18;98312.03;;;17.81;51.42
13124;BME280;6627;50.920;12.050;2023-11-21T00:22:46;98318.16;;;18.13;50.14
13124;BME280;6627;50.920;12.050;2023-11-21T00:25:13;98310.19;;;17.69;51.13
13124;BME280;6627;50.920;12.050;2023-11-21T00:27:43;98346.84;;;18.77;49.04
13124;BME280;6627;50.920;12.050;2023-11-21T00:30:12;98247.19;;;17.69;49.99
13124;BME280;6627;50.920;12.050;2023-11-21T00:33:00;98285.44;;;17.65;50.60
13124;BME280;6627;50.920;12.050;2023-11-21T00:35:27;98304.78;;;17.37;51.82
13124;BME280;6627;50.920;12.050;2023-11-21T00:37:55;98261.41;;;17.39;50.67
13124;BME280;6627;50.920;12.050;2023-11-21T00:40:22;98274.97;;;17.32;51.17
13124;BME280;6627;50.920;12.050;2023-11-21T00:42:50;98287.75;;;17.63;50.80
13124;BME280;6627;50.920;12.050;2023-11-21T00:45:17;98330.06;;;18.01;50.52
13124;BME280;6627;50.920;12.050;2023-11-21T00:47:45;98297.09;;;17.78;50.43
13124;BME280;6627;50.920;12.050;2023-11-21T00:50:13;98250.91;;;17.61;49.90
13124;BME280;6627;50.920;12.050;2023-11-21T00:52:41;98292.31;;;17.05;52.19
13124;BME280;6627;50.920;12.050;2023-11-21T00:55:09;98310.25;;;17.37;51.45
13124;BME280;6627;50.920;12.050;2023-11-21T00:57:36;98243.66;;;16.67;52.14
13124;BME280;6627;50.920;12.050;2023-11-21T01:00:05;98344.53;;;17.31;52.34
13124;BME280;6627;50.920;12.050;2023-11-21T01:02:35;98283.19;;;17.52;50.74
13124;BME280;6627;50.920;12.050;2023-11-21T01:05:03;98313.69;;;17.85;50.26
13124;BME280;6627;50.920;12.050;2023-11-21T01:07:32;98324.22;;;18.22;49.46
13124;BME280;6627;50.920;12.050;2023-11-21T01:09:59;98258.06;;;17.46;50.19
13124;BME280;6627;50.920;12.050;2023-11-21T01:12:26;98284.16;;;17.24;51.02
13124;BME280;6627;50.920;12.050;2023-11-21T01:14:54;98254.00;;;16.73;51.65
13124;BME280;6627;50.920;12.050;2023-11-21T01:17:21;98363.94;;;17.26;52.65
13124;BME280;6627;50.920;12.050;2023-11-21T01:19:49;98325.78;;;17.49;51.17
13124;BME280;6627;50.920;12.050;2023-11-21T01:22:17;98320.78;;;17.20;51.84
13124;BME280;6627;50.920;12.050;2023-11-21T01:24:49;98321.91;;;17.50;51.34
13124;BME280;6627;50.920;12.050;2023-11-21T01:27:17;98304.38;;;17.04;52.10
13124;BME280;6627;50.920;12.050;2023-11-21T01:29:45;98315.00;;;17.05;52.06
13124;BME280;6627;50.920;12.050;2023-11-21T01:32:12;98301.44;;;17.28;51.41
13124;BME280;6627;50.920;12.050;2023-11-21T01:34:39;98311.34;;;17.33;51.53
13124;BME280;6627;50.920;12.050;2023-11-21T01:37:07;98326.53;;;16.99;52.59
13124;BME280;6627;50.920;12.050;2023-11-21T01:39:35;98361.19;;;17.58;51.70
13124;BME280;6627;50.920;12.050;2023-11-21T01:42:07;98288.22;;;16.99;51.91
13124;BME280;6627;50.920;12.050;2023-11-21T01:44:34;98340.56;;;16.97;52.56
13124;BME280;6627;50.920;12.050;2023-11-21T01:47:02;98331.84;;;17.23;51.69
13124;BME280;6627;50.920;12.050;2023-11-21T01:49:31;98324.13;;;16.65;53.34
13124;BME280;6627;50.920;12.050;2023-11-21T01:52:00;98372.94;;;17.43;52.21
13124;BME280;6627;50.920;12.050;2023-11-21T01:54:29;98345.75;;;17.50;51.76
13124;BME280;6627;50.920;12.050;2023-11-21T01:56:58;98330.31;;;17.26;52.04
13124;BME280;6627;50.920;12.050;2023-11-21T01:59:35;98371.25;;;18.05;50.70
13124;BME280;6627;50.920;12.050;2023-11-21T02:02:03;98329.00;;;17.35;51.68
13124;BME280;6627;50.920;12.050;2023-11-21T02:04:31;98310.50;;;17.83;50.05
13124;BME280;6627;50.920;12.050;2023-11-21T02:06:59;98330.00;;;17.98;49.96
13124;BME280;6627;50.920;12.050;2023-11-21T02:09:27;98299.50;;;17.13;51.40
13124;BME280;6627;50.920;12.050;2023-11-21T02:11:56;98347.50;;;17.58;51.24
13124;BME280;6627;50.920;12.050;2023-11-21T02:14:25;98329.69;;;17.32;51.60
13124;BME280;6627;50.920;12.050;2023-11-21T02:17:05;98326.09;;;17.28;51.48
13124;BME280;6627;50.920;12.050;2023-11-21T02:19:32;98329.34;;;16.86;52.45
13124;BME280;6627;50.920;12.050;2023-11-21T02:22:01;98352.75;;;17.15;52.33
13124;BME280;6627;50.920;12.050;2023-11-21T02:24:33;98349.47;;;17.42;51.65
13124;BME280;6627;50.920;12.050;2023-11-21T02:27:00;98355.13;;;17.49;51.68
13124;BME280;6627;50.920;12.050;2023-11-21T02:29:27;98355.78;;;17.77;51.06
13124;BME280;6627;50.920;12.050;2023-11-21T02:31:56;98331.19;;;17.46;51.40
13124;BME280;6627;50.920;12.050;2023-11-21T02:34:23;98339.16;;;17.70;50.83
13124;BME280;6627;50.920;12.050;2023-11-21T02:36:51;98312.59;;;17.04;52.08
13124;BME280;6627;50.920;12.050;2023-11-21T02:39:19;98373.44;;;17.64;51.73
13124;BME280;6627;50.920;12.050;2023-11-21T02:41:49;98305.44;;;16.99;52.14
13124;BME280;6627;50.920;12.050;2023-11-21T02:44:17;98329.97;;;17.27;51.86
13124;BME280;6627;50.920;12.050;2023-11-21T02:46:44;98346.94;;;17.68;51.05
13124;BME280;6627;50.920;12.050;2023-11-21T02:49:13;98309.59;;;17.09;51.67
13124;BME280;6627;50.920;12.050;2023-11-21T02:51:40;98322.69;;;16.72;52.75
13124;BME280;6627;50.920;12.050;2023-11-21T02:54:08;98388.81;;;17.53;52.19
13124;BME280;6627;50.920;12.050;2023-11-21T02:56:36;98383.56;;;17.95;50.90
13124;BME280;6627;50.920;12.050;2023-11-21T02:59:04;98350.09;;;17.70;50.82
13124;BME280;6627;50.920;12.050;2023-11-21T03:01:31;98333.50;;;17.28;51.58
13124;BME280;6627;50.920;12.050;2023-11-21T03:03:59;98349.78;;;17.56;51.14
13124;BME280;6627;50.920;12.050;2023-11-21T03:06:26;98377.41;;;17.82;51.08
13124;BME280;6627;50.920;12.050;2023-11-21T03:08:53;98343.84;;;17.70;50.54
13124;BME280;6627;50.920;12.050;2023-11-21T03:11:20;98335.03;;;17.96;49.89
13124;BME280;6627;50.920;12.050;2023-11-21T03:13:48;98326.22;;;17.51;50.81
13124;BME280;6627;50.920;12.050;2023-11-21T03:16:18;98329.59;;;17.45;50.77
13124;BME280;6627;50.920;12.050;2023-11-21T03:18:45;98338.06;;;17.39;51.32
13124;BME280;6627;50.920;12.050;2023-11-21T03:21:12;98341.63;;;17.08;52.05
13124;BME280;6627;50.920;12.050;2023-11-21T03:23:39;98367.28;;;17.51;51.46
13124;BME280;6627;50.920;12.050;2023-11-21T03:26:11;98320.88;;;17.23;51.30
13124;BME280;6627;50.920;12.050;2023-11-21T03:28:39;98365.66;;;17.66;51.11
13124;BME280;6627;50.920;12.050;2023-11-21T03:31:06;98430.03;;;18.07;50.75
13124;BME280;6627;50.920;12.050;2023-11-21T03:33:36;98381.00;;;18.22;49.57
13124;BME280;6627;50.920;12.050;2023-11-21T03:36:04;98254.72;;;17.02;50.77
13124;BME280;6627;50.920;12.050;2023-11-21T03:38:32;98335.72;;;17.22;51.50
13124;BME280;6627;50.920;12.050;2023-11-21T03:41:00;98355.13;;;17.49;51.04
13124;BME280;6627;50.920;12.050;2023-11-21T03:43:27;98369.19;;;17.82;50.45
13124;BME280;6627;50.920;12.050;2023-11-21T03:45:54;98318.75;;;17.17;51.25
13124;BME280;6627;50.920;12.050;2023-11-21T03:48:21;98368.53;;;17.54;51.24
13124;BME280;6627;50.920;12.050;2023-11-21T03:50:50;98350.84;;;17.67;50.49
13124;BME280;6627;50.920;12.050;2023-11-21T03:53:17;98346.44;;;17.47;50.73
13124;BME280;6627;50.920;12.050;2023-11-21T03:55:45;98338.88;;;17.24;51.12
13124;BME280;6627;50.920;12.050;2023-11-21T03:58:12;98389.59;;;17.69;50.79
13124;BME280;6627;50.920;12.050;2023-11-21T04:00:39;98367.31;;;17.86;50.08
13124;BME280;6627;50.920;12.050;2023-11-21T04:03:07;98352.13;;;17.73;50.25
13124;BME280;6627;50.920;12.050;2023-11-21T04:05:34;98308.13;;;16.52;52.37
13124;BME280;6627;50.920;12.050;2023-11-21T04:08:03;98376.50;;;17.27;51.49
13124;BME280;6627;50.920;12.050;2023-11-21T04:10:32;98347.03;;;17.05;51.42
13124;BME280;6627;50.920;12.050;2023-11-21T04:12:59;98368.19;;;17.24;51.45
13124;BME280;6627;50.920;12.050;2023-11-21T04:15:26;98357.25;;;17.24;51.17
13124;BME280;6627;50.920;12.050;2023-11-21T04:17:54;98352.75;;;17.15;51.28
13124;BME280;6627;50.920;12.050;2023-11-21T04:20:22;98360.97;;;17.31;50.99
13124;BME280;6627;50.920;12.050;2023-11-21T04:22:50;98351.59;;;17.32;51.08
13124;BME280;6627;50.920;12.050;2023-11-21T04:25:19;98373.91;;;17.50;50.84
13124;BME280;6627;50.920;12.050;2023-11-21T04:27:46;98352.84;;;17.19;51.09
13124;BME280;6627;50.920;12.050;2023-11-21T04:30:14;98357.09;;;17.01;51.55
13124;BME280;6627;50.920;12.050;2023-11-21T04:32:42;98379.75;;;17.17;51.46
13124;BME280;6627;50.920;12.050;2023-11-21T04:35:09;98363.69;;;17.15;51.36
13124;BME280;6627;50.920;12.050;2023-11-21T04:37:37;98395.41;;;17.32;51.45
13124;BME280;6627;50.920;12.050;2023-11-21T04:40:06;98376.94;;;17.29;51.29
13124;BME280;6627;50.920;12.050;2023-11-21T04:42:40;98359.19;;;17.07;51.30
13124;BME280;6627;50.920;12.050;2023-11-21T04:45:08;98359.28;;;17.11;51.18
13124;BME280;6627;50.920;12.050;2023-11-21T04:47:37;98309.88;;;16.88;50.62
13124;BME280;6627;50.920;12.050;2023-11-21T04:50:06;98301.88;;;16.51;51.26
13124;BME280;6627;50.920;12.050;2023-11-21T04:52:33;98313.06;;;16.18;52.18
13124;BME280;6627;50.920;12.050;2023-11-21T04:55:01;98281.22;;;16.10;51.88
13124;BME280;6627;50.920;12.050;2023-11-21T04:57:29;98306.28;;;16.12;51.98
13124;BME280;6627;50.920;12.050;2023-11-21T04:59:58;98310.25;;;16.43;51.40
13124;BME280;6627;50.920;12.050;2023-11-21T05:02:26;98276.06;;;15.93;52.00
13124;BME280;6627;50.920;12.050;2023-11-21T05:04:54;98250.34;;;15.66;51.94
13124;BME280;6627;50.920;12.050;2023-11-21T05:07:22;98235.75;;;15.74;51.49
13124;BME280;6627;50.920;12.050;2023-11-21T05:09:50;98255.47;;;15.55;52.12
13124;BME280;6627;50.920;12.050;2023-11-21T05:12:17;98253.66;;;15.59;51.82
13124;BME280;6627;50.920;12.050;2023-11-21T05:14:44;98226.66;;;15.29;52.02
13124;BME280;6627;50.920;12.050;2023-11-21T05:17:14;98262.50;;;15.56;51.66
13124;BME280;6627;50.920;12.050;2023-11-21T05:19:41;98221.41;;;15.36;51.50
13124;BME280;6627;50.920;12.050;2023-11-21T05:22:09;98173.09;;;14.84;51.98
13124;BME280;6627;50.920;12.050;2023-11-21T05:24:38;98218.44;;;15.42;51.20
13124;BME280;6627;50.920;12.050;2023-11-21T05:27:05;98173.34;;;14.67;52.00
13124;BME280;6627;50.920;12.050;2023-11-21T05:29:35;98250.66;;;14.99;52.58
13124;BME280;6627;50.920;12.050;2023-11-21T05:32:04;98241.44;;;15.28;51.58
13124;BME280;6627;50.920;12.050;2023-11-21T05:34:32;98219.63;;;15.04;51.79
13124;BME280;6627;50.920;12.050;2023-11-21T05:36:59;98187.19;;;14.62;52.31
13124;BME280;6627;50.920;12.050;2023-11-21T05:39:27;98240.00;;;15.06;52.06
13124;BME280;6627;50.920;12.050;2023-11-21T05:41:54;98233.25;;;15.16;51.46
13124;BME280;6627;50.920;12.050;2023-11-21T05:44:21;98235.28;;;15.31;50.94
13124;BME280;6627;50.920;12.050;2023-11-21T05:46:49;98227.09;;;15.31;50.75
13124;BME280;6627;50.920;12.050;2023-11-21T05:49:17;98182.19;;;14.88;50.90
13124;BME280;6627;50.920;12.050;2023-11-21T05:51:49;98203.44;;;14.71;51.50
13124;BME280;6627;50.920;12.050;2023-11-21T05:54:16;98239.44;;;14.88;51.64
13124;BME280;6627;50.920;12.050;2023-11-21T05:56:43;98242.16;;;14.88;51.48
13124;BME280;6627;50.920;12.050;2023-11-21T05:59:10;98208.53;;;14.72;51.41
13124;BME280;6627;50.920;12.050;2023-11-21T06:01:38;98241.47;;;14.92;51.46
13124;BME280;6627;50.920;12.050;2023-11-21T06:04:06;98197.84;;;14.67;51.57
13124;BME280;6627;50.920;12.050;2023-11-21T06:06:36;98228.41;;;14.73;51.62
13124;BME280;6627;50.920;12.050;2023-11-21T06:09:21;98227.38;;;15.02;50.87
13124;BME280;6627;50.920;12.050;2023-11-21T06:11:51;98233.16;;;15.12;50.79
13124;BME280;6627;50.920;12.050;2023-11-21T06:14:18;98206.13;;;14.95;50.45
13124;BME280;6627;50.920;12.050;2023-11-21T06:16:48;98201.97;;;14.61;51.17
13124;BME280;6627;50.920;12.050;2023-11-21T06:19:17;98196.38;;;14.82;50.45
13124;BME280;6627;50.920;12.050;2023-11-21T06:21:46;98228.97;;;14.91;50.54
13124;BME280;6627;50.920;12.050;2023-11-21T06:24:13;98172.38;;;14.38;50.62
13124;BME280;6627;50.920;12.050;2023-11-21T06:26:42;98196.69;;;14.44;51.11
13124;BME280;6627;50.920;12.050;2023-11-21T06:29:12;98221.66;;;14.46;51.21
13124;BME280;6627;50.920;12.050;2023-11-21T06:31:39;98207.09;;;14.17;51.45
13124;BME280;6627;50.920;12.050;2023-11-21T06:34:07;98248.06;;;14.66;50.91
13124;BME280;6627;50.920;12.050;2023-11-21T06:36:36;98235.56;;;14.77;50.42
13124;BME280;6627;50.920;12.050;2023-11-21T06:39:08;98212.53;;;14.29;51.26
13124;BME280;6627;50.920;12.050;2023-11-21T06:41:36;98216.19;;;14.33;51.17
13124;BME280;6627;50.920;12.050;2023-11-21T06:44:07;98209.91;;;14.21;51.25
13124;BME280;6627;50.920;12.050;2023-11-21T06:46:35;98244.59;;;14.45;51.05
13124;BME280;6627;50.920;12.050;2023-11-21T06:49:03;98251.44;;;14.51;51.11
13124;BME280;6627;50.920;12.050;2023-11-21T06:51:30;98264.16;;;14.59;51.14
13124;BME280;6627;50.920;12.050;2023-11-21T06:53:58;98333.41;;;15.28;50.80
13124;BME280;6627;50.920;12.050;2023-11-21T06:56:25;98286.13;;;15.11;50.31
13124;BME280;6627;50.920;12.050;2023-11-21T06:58:52;98272.94;;;14.89;50.73
13124;BME280;6627;50.920;12.050;2023-11-21T07:01:21;98320.31;;;15.09;50.75
13124;BME280;6627;50.920;12.050;2023-11-21T07:03:48;98299.19;;;15.06;50.53
13124;BME280;6627;50.920;12.050;2023-11-21T07:06:16;98320.09;;;15.38;49.87
13124;BME280;6627;50.920;12.050;2023-11-21T07:08:43;98327.84;;;15.36;49.93
13124;BME280;6627;50.920;12.050;2023-11-21T07:11:10;98403.78;;;16.24;48.82
13124;BME280;6627;50.920;12.050;2023-11-21T07:13:38;98401.94;;;15.75;50.02
13124;BME280;6627;50.920;12.050;2023-11-21T07:16:06;98382.16;;;15.66;50.00
13124;BME280;6627;50.920;12.050;2023-11-21T07:18:34;98412.88;;;15.87;50.03
13124;BME280;6627;50.920;12.050;2023-11-21T07:21:02;98426.94;;;16.02;49.91
13124;BME280;6627;50.920;12.050;2023-11-21T07:23:29;98390.59;;;15.85;49.63
13124;BME280;6627;50.920;12.050;2023-11-21T07:25:56;98379.53;;;15.82;49.69
13124;BME280;6627;50.920;12.050;2023-11-21T07:28:24;98388.41;;;15.91;49.41
13124;BME280;6627;50.920;12.050;2023-11-21T07:30:52;98399.09;;;15.84;49.65
13124;BME280;6627;50.920;12.050;2023-11-21T07:33:19;98388.28;;;15.87;49.65
13124;BME280;6627;50.920;12.050;2023-11-21T07:35:48;98413.75;;;16.04;49.61
13124;BME280;6627;50.920;12.050;2023-11-21T07:38:15;98429.16;;;16.24;49.30
13124;BME280;6627;50.920;12.050;2023-11-21T07:40:43;98447.41;;;16.20;49.57
13124;BME280;6627;50.920;12.050;2023-11-21T07:43:10;98426.78;;;16.23;49.24
13124;BME280;6627;50.920;12.050;2023-11-21T07:45:38;98495.97;;;16.51;49.84
13124;BME280;6627;50.920;12.050;2023-11-21T07:48:05;98451.09;;;16.52;49.12
13124;BME280;6627;50.920;12.050;2023-11-21T07:50:33;98398.47;;;16.15;49.34
13124;BME280;6627;50.920;12.050;2023-11-21T07:53:01;98387.63;;;15.42;51.05
13124;BME280;6627;50.920;12.050;2023-11-21T07:55:31;98407.38;;;15.26;51.70
13124;BME280;6627;50.920;12.050;2023-11-21T07:57:59;98506.84;;;16.11;51.02
13124;BME280;6627;50.920;12.050;2023-11-21T08:00:26;98446.44;;;15.76;50.86
13124;BME280;6627;50.920;12.050;2023-11-21T08:02:56;98433.00;;;15.46;51.54
13124;BME280;6627;50.920;12.050;2023-11-21T08:05:23;98466.09;;;15.57;51.76
13124;BME280;6627;50.920;12.050;2023-11-21T08:07:52;98428.00;;;14.91;52.63
13124;BME280;6627;50.920;12.050;2023-11-21T08:10:21;98452.09;;;14.88;53.01
13124;BME280;6627;50.920;12.050;2023-11-21T08:12:49;98473.38;;;15.41;52.15
13124;BME280;6627;50.920;12.050;2023-11-21T08:15:17;98477.00;;;15.32;52.79
13124;BME280;6627;50.920;12.050;2023-11-21T08:17:52;98479.16;;;15.51;52.32
13124;BME280;6627;50.920;12.050;2023-11-21T08:20:20;98499.44;;;16.24;50.94
13124;BME280;6627;50.920;12.050;2023-11-21T08:22:49;98504.69;;;16.17;51.19
13124;BME280;6627;50.920;12.050;2023-11-21T08:25:20;98499.78;;;16.10;51.29
13124;BME280;6627;50.920;12.050;2023-11-21T08:27:49;98492.06;;;16.12;51.09
13124;BME280;6627;50.920;12.050;2023-11-21T08:30:16;98527.81;;;16.59;50.33
13124;BME280;6627;50.920;12.050;2023-11-21T08:32:45;98518.91;;;16.34;50.97
13124;BME280;6627;50.920;12.050;2023-11-21T08:35:13;98522.09;;;16.24;51.17
13124;BME280;6627;50.920;12.050;2023-11-21T08:37:42;98512.78;;;16.01;51.48
13124;BME280;6627;50.920;12.050;2023-11-21T08:40:11;98508.69;;;15.82;51.86
13124;BME280;6627;50.920;12.050;2023-11-21T08:42:45;98544.88;;;16.04;52.07
13124;BME280;6627;50.920;12.050;2023-11-21T08:45:13;98522.66;;;16.18;51.53
13124;BME280;6627;50.920;12.050;2023-11-21T08:47:41;98533.38;;;15.86;52.67
13124;BME280;6627;50.920;12.050;2023-11-21T08:50:10;98553.41;;;16.02;52.44
13124;BME280;6627;50.920;12.050;2023-11-21T08:52:38;98606.56;;;17.47;49.84
13124;BME280;6627;50.920;12.050;2023-11-21T08:55:07;98551.06;;;16.78;50.65
13124;BME280;6627;50.920;12.050;2023-11-21T08:57:35;98595.88;;;17.13;50.26
13124;BME280;6627;50.920;12.050;2023-11-21T09:00:05;98630.94;;;17.52;49.81
13124;BME280;6627;50.920;12.050;2023-11-21T09:02:36;98623.28;;;18.17;48.35
13124;BME280;6627;50.920;12.050;2023-11-21T09:05:04;98596.59;;;17.70;48.91
13124;BME280;6627;50.920;12.050;2023-11-21T09:07:32;98581.91;;;17.47;49.31
13124;BME280;6627;50.920;12.050;2023-11-21T09:09:59;98585.19;;;17.80;48.70
13124;BME280;6627;50.920;12.050;2023-11-21T09:12:28;98577.06;;;17.40;49.48
13124;BME280;6627;50.920;12.050;2023-11-21T09:15:16;98651.50;;;17.46;50.44
13124;BME280;6627;50.920;12.050;2023-11-21T09:17:44;98625.81;;;17.78;49.41
13124;BME280;6627;50.920;12.050;2023-11-21T09:20:12;98574.59;;;16.95;50.53
13124;BME280;6627;50.920;12.050;2023-11-21T09:22:41;98622.94;;;16.90;51.60
13124;BME280;6627;50.920;12.050;2023-11-21T09:25:11;98677.38;;;17.20;51.62
13124;BME280;6627;50.920;12.050;2023-11-21T09:27:39;98674.50;;;17.29;51.67
13124;BME280;6627;50.920;12.050;2023-11-21T09:30:07;98664.16;;;17.50;50.96
13124;BME280;6627;50.920;12.050;2023-11-21T09:32:39;98681.69;;;17.89;50.48
13124;BME280;6627;50.920;12.050;2023-11-21T09:35:07;98652.88;;;17.39;51.17
13124;BME280;6627;50.920;12.050;2023-11-21T09:37:35;98644.91;;;17.06;51.66
13124;BME280;6627;50.920;12.050;2023-11-21T09:40:06;98678.28;;;17.12;52.14
13124;BME280;6627;50.920;12.050;2023-11-21T09:42:51;98617.03;;;16.76;52.23
13124;BME280;6627;50.920;12.050;2023-11-21T09:45:44;98613.97;;;16.41;53.03
13124;BME280;6627;50.920;12.050;2023-11-21T09:48:16;98681.53;;;17.02;52.64
13124;BME280;6627;50.920;12.050;2023-11-21T09:50:46;98702.16;;;16.99;52.98
13124;BME280;6627;50.920;12.050;2023-11-21T09:53:19;98714.47;;;17.58;52.29
13124;BME280;6627;50.920;12.050;2023-11-21T09:55:53;98692.88;;;17.56;51.69
13124;BME280;6627;50.920;12.050;2023-11-21T09:58:24;98715.66;;;17.73;51.73
13124;BME280;6627;50.920;12.050;2023-11-21T10:01:01;98762.13;;;18.25;51.18
13124;BME280;6627;50.920;12.050;2023-11-21T10:03:35;98666.41;;;17.88;50.46
13124;BME280;6627;50.920;12.050;2023-11-21T10:06:04;98675.50;;;17.36;51.71
13124;BME280;6627;50.920;12.050;2023-11-21T10:08:33;98694.72;;;17.12;52.76
13124;BME280;6627;50.920;12.050;2023-11-21T10:11:04;98675.44;;;17.21;52.16
13124;BME280;6627;50.920;12.050;2023-11-21T10:13:35;98699.00;;;17.78;51.49
13124;BME280;6627;50.920;12.050;2023-11-21T10:16:07;98713.41;;;17.22;53.08
13124;BME280;6627;50.920;12.050;2023-11-21T10:18:59;98693.97;;;17.39;52.22
13124;BME280;6627;50.920;12.050;2023-11-21T10:21:28;98724.66;;;17.85;51.71
13124;BME280;6627;50.920;12.050;2023-11-21T10:23:55;98697.66;;;17.31;52.32
13124;BME280;6627;50.920;12.050;2023-11-21T10:26:23;98700.72;;;17.30;52.65
13124;BME280;6627;50.920;12.050;2023-11-21T10:28:57;98760.44;;;17.52;53.37
13124;BME280;6627;50.920;12.050;2023-11-21T10:31:26;98673.09;;;16.58;53.76
13124;BME280;6627;50.920;12.050;2023-11-21T10:33:54;98720.97;;;17.01;53.73
13124;BME280;6627;50.920;12.050;2023-11-21T10:36:29;98716.53;;;17.49;52.42
13124;BME280;6627;50.920;12.050;2023-11-21T10:38:57;98727.66;;;17.68;52.22
13124;BME280;6627;50.920;12.050;2023-11-21T10:41:25;98689.03;;;16.44;54.41
13124;BME280;6627;50.920;12.050;2023-11-21T10:43:53;98683.34;;;16.61;53.87
13124;BME280;6627;50.920;12.050;2023-11-21T10:46:22;98746.72;;;17.12;53.87
13124;BME280;6627;50.920;12.050;2023-11-21T10:48:55;98690.88;;;17.01;52.81
13124;BME280;6627;50.920;12.050;2023-11-21T10:51:22;98742.56;;;17.43;52.82
13124;BME280;6627;50.920;12.050;2023-11-21T10:53:52;98725.53;;;17.09;53.43
13124;BME280;6627;50.920;12.050;2023-11-21T10:56:23;98732.25;;;16.75;54.37
13124;BME280;6627;50.920;12.050;2023-11-21T10:58:52;98720.97;;;17.01;53.47
13124;BME280;6627;50.920;12.050;2023-11-21T11:01:22;98730.63;;;17.23;53.13
13124;BME280;6627;50.920;12.050;2023-11-21T11:03:55;98716.38;;;16.44;54.96
13124;BME280;6627;50.920;12.050;2023-11-21T11:06:39;98759.72;;;16.78;54.89
13124;BME280;6627;50.920;12.050;2023-11-21T11:09:13;98756.94;;;17.39;53.23
13124;BME280;6627;50.920;12.050;2023-11-21T11:11:40;98755.03;;;17.03;54.35
13124;BME280;6627;50.920;12.050;2023-11-21T11:14:14;98746.03;;;17.15;53.85
13124;BME280;6627;50.920;12.050;2023-11-21T11:17:03;98762.25;;;17.60;52.88
13124;BME280;6627;50.920;12.050;2023-11-21T11:19:31;98686.53;;;17.00;52.93
13124;BME280;6627;50.920;12.050;2023-11-21T11:22:18;98699.94;;;17.17;52.53
13124;BME280;6627;50.920;12.050;2023-11-21T11:25:35;98682.19;;;16.50;53.63
13124;BME280;6627;50.920;12.050;2023-11-21T11:28:34;98729.75;;;16.24;55.45
13124;BME280;6627;50.920;12.050;2023-11-21T11:31:27;98773.53;;;17.19;53.88
13124;BME280;6627;50.920;12.050;2023-11-21T11:34:06;98782.03;;;17.42;53.55
13124;BME280;6627;50.920;12.050;2023-11-21T11:36:48;98785.22;;;17.44;53.59
13124;BME280;6627;50.920;12.050;2023-11-21T11:39:29;98791.94;;;17.46;53.29
13124;BME280;6627;50.920;12.050;2023-11-21T11:42:02;98807.34;;;17.75;52.92
13124;BME280;6627;50.920;12.050;2023-11-21T11:44:51;98805.38;;;17.76;52.81
13124;BME280;6627;50.920;12.050;2023-11-21T11:47:25;98815.31;;;18.08;52.19
13124;BME280;6627;50.920;12.050;2023-11-21T11:50:03;98797.72;;;17.69;52.37
13124;BME280;6627;50.920;12.050;2023-11-21T11:52:35;98687.13;;;16.56;53.31
13124;BME280;6627;50.920;12.050;2023-11-21T11:55:04;98774.06;;;17.00;53.81
13124;BME280;6627;50.920;12.050;2023-11-21T11:57:35;98694.75;;;16.75;52.97
13124;BME280;6627;50.920;12.050;2023-11-21T12:00:14;98793.28;;;17.77;52.09
13124;BME280;6627;50.920;12.050;2023-11-21T12:02:52;98708.88;;;16.77;53.10
13124;BME280;6627;50.920;12.050;2023-11-21T12:05:21;98684.72;;;16.43;53.27
13124;BME280;6627;50.920;12.050;2023-11-21T12:07:51;98826.50;;;17.63;52.95
13124;BME280;6627;50.920;12.050;2023-11-21T12:10:21;98745.66;;;17.29;52.02
13124;BME280;6627;50.920;12.050;2023-11-21T12:12:55;98749.31;;;16.72;53.26
13124;BME280;6627;50.920;12.050;2023-11-21T12:15:23;98746.03;;;16.90;52.90
13124;BME280;6627;50.920;12.050;2023-11-21T12:17:52;98803.03;;;17.13;52.98
13124;BME280;6627;50.920;12.050;2023-11-21T12:20:21;98705.97;;;15.79;54.84
13124;BME280;6627;50.920;12.050;2023-11-21T12:22:52;98708.81;;;16.16;53.72
13124;BME280;6627;50.920;12.050;2023-11-21T12:25:22;98778.56;;;16.47;54.48
13124;BME280;6627;50.920;12.050;2023-11-21T12:27:52;98749.81;;;16.28;54.36
13124;BME280;6627;50.920;12.050;2023-11-21T12:30:22;98799.16;;;16.89;53.54
13124;BME280;6627;50.920;12.050;2023-11-21T12:33:01;98784.53;;;16.73;53.45
13124;BME280;6627;50.920;12.050;2023-11-21T12:35:32;98710.50;;;16.08;53.84
13124;BME280;6627;50.920;12.050;2023-11-21T12:38:02;98752.50;;;16.04;54.33
13124;BME280;6627;50.920;12.050;2023-11-21T12:40:29;98741.88;;;15.69;54.94
13124;BME280;6627;50.920;12.050;2023-11-21T12:43:00;98764.50;;;15.49;56.17
13124;BME280;6627;50.920;12.050;2023-11-21T12:45:30;98801.63;;;16.70;53.25
13124;BME280;6627;50.920;12.050;2023-11-21T12:48:01;98761.56;;;15.96;54.76
13124;BME280;6627;50.920;12.050;2023-11-21T12:50:34;98744.50;;;16.44;53.13
13124;BME280;6627;50.920;12.050;2023-11-21T12:53:05;98772.63;;;16.45;53.71
13124;BME280;6627;50.920;12.050;2023-11-21T12:55:35;98758.94;;;17.02;51.77
13124;BME280;6627;50.920;12.050;2023-11-21T12:58:06;98648.69;;;15.37;53.60
13124;BME280;6627;50.920;12.050;2023-11-21T13:00:37;98723.22;;;15.29;55.12
13124;BME280;6627;50.920;12.050;2023-11-21T13:03:07;98755.09;;;15.37;55.44
13124;BME280;6627;50.920;12.050;2023-11-21T13:05:38;98743.41;;;16.12;53.02
13124;BME280;6627;50.920;12.050;2023-11-21T13:08:09;98710.75;;;15.61;53.64
13124;BME280;6627;50.920;12.050;2023-11-21T13:10:40;98733.75;;;15.81;53.18
13124;BME280;6627;50.920;12.050;2023-11-21T13:13:13;98648.78;;;14.78;54.28